createdAt,value
2018-11-06T00:00:02.370Z,5.62
2018-11-06T00:01:02.355Z,5.58
2018-11-06T00:02:02.344Z,5.57
2018-11-06T00:03:02.341Z,5.57
2018-11-06T00:04:02.512Z,5.59
2018-11-06T00:05:02.319Z,5.57
2018-11-06T00:06:02.306Z,5.58
2018-11-06T00:07:02.309Z,5.58
2018-11-06T00:08:02.280Z,5.54
2018-11-06T00:09:02.323Z,5.59
2018-11-06T00:10:02.314Z,5.52
2018-11-06T00:11:02.264Z,5.54
2018-11-06T00:12:02.239Z,5.54
2018-11-06T00:13:02.235Z,5.59
2018-11-06T00:14:02.249Z,5.57
2018-11-06T00:15:02.227Z,5.47
2018-11-06T00:16:02.236Z,5.58
2018-11-06T00:17:02.191Z,5.51
2018-11-06T00:18:02.187Z,5.48
2018-11-06T00:19:02.173Z,5.57
2018-11-06T00:20:02.158Z,5.51
2018-11-06T00:21:02.155Z,5.54
2018-11-06T00:22:02.179Z,5.52
2018-11-06T00:23:02.122Z,5.48
2018-11-06T00:24:02.108Z,5.44
2018-11-06T00:25:02.121Z,5.47
2018-11-06T00:26:02.090Z,5.39
2018-11-06T00:27:02.089Z,5.44
2018-11-06T00:28:02.104Z,5.40
2018-11-06T00:29:02.057Z,5.36
2018-11-06T00:30:02.047Z,5.37
2018-11-06T00:31:02.050Z,5.50
2018-11-06T00:32:02.026Z,5.59
2018-11-06T00:33:02.019Z,5.55
2018-11-06T00:34:02.106Z,5.52
2018-11-06T00:35:01.993Z,5.61
2018-11-06T00:36:02.019Z,5.61
2018-11-06T00:37:01.972Z,5.61
2018-11-06T00:38:02.004Z,5.66
2018-11-06T00:39:01.950Z,5.69
2018-11-06T00:40:02.152Z,5.70
2018-11-06T00:41:01.944Z,5.59
2018-11-06T00:42:01.926Z,5.66
2018-11-06T00:43:01.913Z,5.55
2018-11-06T00:44:01.901Z,5.62
2018-11-06T00:45:01.880Z,5.54
2018-11-06T00:46:02.069Z,5.58
2018-11-06T00:47:01.857Z,5.58
2018-11-06T00:48:01.856Z,5.44
2018-11-06T00:49:01.881Z,5.52
2018-11-06T00:50:01.842Z,5.51
2018-11-06T00:51:01.832Z,5.39
2018-11-06T00:52:01.857Z,5.47
2018-11-06T00:53:01.799Z,5.37
2018-11-06T00:54:01.792Z,5.40
2018-11-06T00:55:01.797Z,5.44
2018-11-06T00:56:01.800Z,5.39
2018-11-06T00:57:01.752Z,5.39
2018-11-06T00:58:01.827Z,5.33
2018-11-06T00:59:01.731Z,5.32
2018-11-06T01:00:01.740Z,5.32
2018-11-06T01:01:01.846Z,5.41
2018-11-06T01:02:01.711Z,5.41
2018-11-06T01:03:01.690Z,5.37
2018-11-06T01:04:01.735Z,5.44
2018-11-06T01:05:01.664Z,5.43
2018-11-06T01:06:01.658Z,5.34
2018-11-06T01:07:01.655Z,5.34
2018-11-06T01:08:01.648Z,5.40
2018-11-06T01:09:01.653Z,5.40
2018-11-06T01:10:01.660Z,5.37
2018-11-06T01:11:01.602Z,5.43
2018-11-06T01:12:01.597Z,5.37
2018-11-06T01:13:01.579Z,5.39
2018-11-06T01:14:01.581Z,5.41
2018-11-06T01:15:01.563Z,5.33
2018-11-06T01:16:01.768Z,5.33
2018-11-06T01:17:01.563Z,5.32
2018-11-06T01:18:01.529Z,5.27
2018-11-06T01:19:01.520Z,5.25
2018-11-06T01:20:01.514Z,5.33
2018-11-06T01:21:01.500Z,5.33
2018-11-06T01:22:01.552Z,5.30
2018-11-06T01:23:01.471Z,5.27
2018-11-06T01:24:01.461Z,5.27
2018-11-06T01:25:01.457Z,5.37
2018-11-06T01:26:01.454Z,5.30
2018-11-06T01:27:01.427Z,5.27
2018-11-06T01:28:01.478Z,5.29
2018-11-06T01:29:01.411Z,5.33
2018-11-06T01:30:01.398Z,5.34
2018-11-06T01:31:01.397Z,5.39
2018-11-06T01:32:01.392Z,5.33
2018-11-06T01:33:01.361Z,5.29
2018-11-06T01:34:01.423Z,5.36
2018-11-06T01:35:01.338Z,5.32
2018-11-06T01:36:01.331Z,5.39
2018-11-06T01:37:01.327Z,5.44
2018-11-06T01:38:01.331Z,5.41
2018-11-06T01:39:01.298Z,5.44
2018-11-06T01:40:01.346Z,5.48
2018-11-06T01:41:01.275Z,5.50
2018-11-06T01:42:01.285Z,5.51
2018-11-06T01:43:01.268Z,5.52
2018-11-06T01:44:01.276Z,5.59
2018-11-06T01:45:01.273Z,5.51
2018-11-06T01:46:01.375Z,5.59
2018-11-06T01:47:01.215Z,5.57
2018-11-06T01:48:01.221Z,5.62
2018-11-06T01:49:01.192Z,5.62
2018-11-06T01:50:01.199Z,5.55
2018-11-06T01:51:01.169Z,5.59
2018-11-06T01:52:01.474Z,5.70
2018-11-06T01:53:01.153Z,5.67
2018-11-06T01:54:01.166Z,5.76
2018-11-06T01:55:01.144Z,5.84
2018-11-06T01:56:01.137Z,5.80
2018-11-06T01:57:01.106Z,5.85
2018-11-06T01:58:01.149Z,5.79
2018-11-06T01:59:01.085Z,5.82
2018-11-06T02:00:01.074Z,5.85
2018-11-06T02:01:01.081Z,5.79
2018-11-06T02:02:01.056Z,5.93
2018-11-06T02:03:01.048Z,5.94
2018-11-06T02:04:01.299Z,5.94
2018-11-06T02:05:01.019Z,5.85
2018-11-06T02:06:01.011Z,5.79
2018-11-06T02:07:00.996Z,5.77
2018-11-06T02:08:00.991Z,5.91
2018-11-06T02:09:01.003Z,5.80
2018-11-06T02:10:01.010Z,5.85
2018-11-06T02:11:00.961Z,5.79
2018-11-06T02:12:00.946Z,5.65
2018-11-06T02:13:00.935Z,5.69
2018-11-06T02:14:00.925Z,5.67
2018-11-06T02:15:00.910Z,5.62
2018-11-06T02:16:00.931Z,5.66
2018-11-06T02:17:00.898Z,5.69
2018-11-06T02:18:00.891Z,5.67
2018-11-06T02:19:00.868Z,5.66
2018-11-06T02:20:00.853Z,5.54
2018-11-06T02:21:00.848Z,5.73
2018-11-06T02:22:00.872Z,5.65
2018-11-06T02:23:00.828Z,5.70
2018-11-06T02:24:00.824Z,5.58
2018-11-06T02:25:00.829Z,5.59
2018-11-06T02:26:00.820Z,5.61
2018-11-06T02:27:00.782Z,5.65
2018-11-06T02:28:00.808Z,5.67
2018-11-06T02:29:00.771Z,5.84
2018-11-06T02:30:00.783Z,5.80
2018-11-06T02:31:00.741Z,5.87
2018-11-06T02:32:00.731Z,5.87
2018-11-06T02:33:00.713Z,5.88
2018-11-06T02:34:00.799Z,6.05
2018-11-06T02:35:00.696Z,6.03
2018-11-06T02:36:00.682Z,6.13
2018-11-06T02:37:00.675Z,6.11
2018-11-06T02:38:00.664Z,6.27
2018-11-06T02:39:00.654Z,6.16
2018-11-06T02:40:00.692Z,6.21
2018-11-06T02:41:00.632Z,6.27
2018-11-06T02:42:00.650Z,6.34
2018-11-06T02:43:00.614Z,6.30
2018-11-06T02:44:00.602Z,6.40
2018-11-06T02:45:00.609Z,6.50
2018-11-06T02:46:00.617Z,6.43
2018-11-06T02:47:00.569Z,6.65
2018-11-06T02:48:00.606Z,6.68
2018-11-06T02:49:00.552Z,6.75
2018-11-06T02:50:00.558Z,6.73
2018-11-06T02:51:00.528Z,6.71
2018-11-06T02:52:00.554Z,6.82
2018-11-06T02:53:00.511Z,6.78
2018-11-06T02:54:00.488Z,6.82
2018-11-06T02:55:00.490Z,6.82
2018-11-06T02:56:00.571Z,6.81
2018-11-06T02:57:00.464Z,6.83
2018-11-06T02:58:01.042Z,6.86
2018-11-06T02:59:00.446Z,6.85
2018-11-06T03:00:00.425Z,6.89
2018-11-06T03:01:00.412Z,6.85
2018-11-06T03:02:00.401Z,6.88
2018-11-06T03:03:00.396Z,6.83
2018-11-06T03:04:00.418Z,6.86
2018-11-06T03:05:00.410Z,6.85
2018-11-06T03:06:00.380Z,6.88
2018-11-06T03:07:00.352Z,6.89
2018-11-06T03:08:00.346Z,6.89
2018-11-06T03:09:00.329Z,6.89
2018-11-06T03:10:00.380Z,6.89
2018-11-06T03:11:00.304Z,6.93
2018-11-06T03:12:00.316Z,6.97
2018-11-06T03:13:00.317Z,6.96
2018-11-06T03:14:00.278Z,6.89
2018-11-06T03:15:00.262Z,6.89
2018-11-06T03:16:00.304Z,7.00
2018-11-06T03:17:00.297Z,6.96
2018-11-06T03:18:00.227Z,6.93
2018-11-06T03:19:00.216Z,7.00
2018-11-06T03:20:00.213Z,6.97
2018-11-06T03:21:00.206Z,7.03
2018-11-06T03:22:00.225Z,7.01
2018-11-06T03:23:00.188Z,6.96
2018-11-06T03:24:00.172Z,7.11
2018-11-06T03:25:00.163Z,7.11
2018-11-06T03:26:00.166Z,7.00
2018-11-06T03:27:00.307Z,7.08
2018-11-06T03:28:00.154Z,7.18
2018-11-06T03:29:00.113Z,7.16
2018-11-06T03:30:00.097Z,7.26
2018-11-06T03:31:00.090Z,7.28
2018-11-06T03:32:00.092Z,7.26
2018-11-06T03:33:00.062Z,7.19
2018-11-06T03:34:00.101Z,7.22
2018-11-06T03:35:00.058Z,7.28
2018-11-06T03:36:00.033Z,7.26
2018-11-06T03:37:00.025Z,7.22
2018-11-06T03:38:00.010Z,7.25
2018-11-06T03:39:00.000Z,7.28
2018-11-06T03:40:00.048Z,7.31
2018-11-06T03:41:00.005Z,7.24
2018-11-06T03:41:59.980Z,7.24
2018-11-06T03:42:59.963Z,7.36
2018-11-06T03:43:59.943Z,7.28
2018-11-06T03:44:59.937Z,7.37
2018-11-06T03:45:59.978Z,7.34
2018-11-06T03:46:59.911Z,7.21
2018-11-06T03:47:59.913Z,7.29
2018-11-06T03:48:59.906Z,7.34
2018-11-06T03:49:59.881Z,7.25
2018-11-06T03:50:59.868Z,7.26
2018-11-06T03:51:59.900Z,7.29
2018-11-06T03:52:59.890Z,7.24
2018-11-06T03:53:59.859Z,7.26
2018-11-06T03:54:59.838Z,7.21
2018-11-06T03:55:59.830Z,7.31
2018-11-06T03:56:59.804Z,7.26
2018-11-06T03:57:59.875Z,7.22
2018-11-06T03:58:59.788Z,7.18
2018-11-06T03:59:59.769Z,7.22
2018-11-06T04:00:59.766Z,7.28
2018-11-06T04:01:59.767Z,7.31
2018-11-06T04:02:59.744Z,7.31
2018-11-06T04:03:59.773Z,7.36
2018-11-06T04:04:59.776Z,7.50
2018-11-06T04:05:59.715Z,7.44
2018-11-06T04:06:59.707Z,7.44
2018-11-06T04:07:59.686Z,7.40
2018-11-06T04:08:59.686Z,7.46
2018-11-06T04:09:59.867Z,7.46
2018-11-06T04:10:59.655Z,7.44
2018-11-06T04:11:59.647Z,7.36
2018-11-06T04:12:59.637Z,7.39
2018-11-06T04:13:59.651Z,7.28
2018-11-06T04:14:59.625Z,7.22
2018-11-06T04:15:59.637Z,7.24
2018-11-06T04:16:59.616Z,7.24
2018-11-06T04:17:59.576Z,7.24
2018-11-06T04:18:59.569Z,7.24
2018-11-06T04:19:59.558Z,7.22
2018-11-06T04:20:59.546Z,7.29
2018-11-06T04:21:59.598Z,7.22
2018-11-06T04:22:59.526Z,7.28
2018-11-06T04:23:59.528Z,7.37
2018-11-06T04:24:59.504Z,7.29
2018-11-06T04:25:59.492Z,7.26
2018-11-06T04:26:59.487Z,7.40
2018-11-06T04:27:59.501Z,7.29
2018-11-06T04:28:59.455Z,7.26
2018-11-06T04:29:59.453Z,7.31
2018-11-06T04:30:59.458Z,7.36
2018-11-06T04:31:59.437Z,7.43
2018-11-06T04:32:59.415Z,7.37
2018-11-06T04:33:59.450Z,7.40
2018-11-06T04:34:59.393Z,7.50
2018-11-06T04:35:59.386Z,7.44
2018-11-06T04:36:59.365Z,7.44
2018-11-06T04:37:59.369Z,7.43
2018-11-06T04:38:59.384Z,7.49
2018-11-06T04:39:59.380Z,7.46
2018-11-06T04:40:59.327Z,7.54
2018-11-06T04:41:59.312Z,7.42
2018-11-06T04:42:59.301Z,7.46
2018-11-06T04:43:59.291Z,7.46
2018-11-06T04:44:59.286Z,7.50
2018-11-06T04:45:59.321Z,7.49
2018-11-06T04:46:59.308Z,7.49
2018-11-06T04:47:59.256Z,7.58
2018-11-06T04:48:59.247Z,7.52
2018-11-06T04:49:59.377Z,7.47
2018-11-06T04:50:59.216Z,7.57
2018-11-06T04:51:59.241Z,7.52
2018-11-06T04:52:59.210Z,7.55
2018-11-06T04:53:59.184Z,7.54
2018-11-06T04:54:59.223Z,7.50
2018-11-06T04:55:59.156Z,7.62
2018-11-06T04:56:59.149Z,7.58
2018-11-06T04:57:59.197Z,7.64
2018-11-06T04:58:59.171Z,7.66
2018-11-06T04:59:59.132Z,7.60
2018-11-06T05:00:59.106Z,7.66
2018-11-06T05:01:59.105Z,7.64
2018-11-06T05:02:59.086Z,7.58
2018-11-06T05:03:59.134Z,7.69
2018-11-06T05:04:59.077Z,7.68
2018-11-06T05:05:59.049Z,7.62
2018-11-06T05:06:59.122Z,7.58
2018-11-06T05:07:59.038Z,7.64
2018-11-06T05:08:59.024Z,7.64
2018-11-06T05:09:59.052Z,7.69
2018-11-06T05:10:59.007Z,7.66
2018-11-06T05:11:58.986Z,7.66
2018-11-06T05:12:58.979Z,7.60
2018-11-06T05:13:59.036Z,7.62
2018-11-06T05:14:58.954Z,7.60
2018-11-06T05:15:58.997Z,7.60
2018-11-06T05:16:58.938Z,7.60
2018-11-06T05:17:58.921Z,7.78
2018-11-06T05:18:58.936Z,7.61
2018-11-06T05:19:58.912Z,7.66
2018-11-06T05:20:58.888Z,7.62
2018-11-06T05:21:58.901Z,7.77
2018-11-06T05:22:58.874Z,7.74
2018-11-06T05:23:58.856Z,7.77
2018-11-06T05:24:58.867Z,7.76
2018-11-06T05:25:58.836Z,7.74
2018-11-06T05:26:58.915Z,7.78
2018-11-06T05:27:58.889Z,7.74
2018-11-06T05:28:58.808Z,7.71
2018-11-06T05:29:58.889Z,7.73
2018-11-06T05:30:58.779Z,7.77
2018-11-06T05:31:58.769Z,7.84
2018-11-06T05:32:58.833Z,7.84
2018-11-06T05:33:58.799Z,7.87
2018-11-06T05:34:58.847Z,7.83
2018-11-06T05:35:58.722Z,7.94
2018-11-06T05:36:58.731Z,7.91
2018-11-06T05:37:58.704Z,7.87
2018-11-06T05:38:58.754Z,7.94
2018-11-06T05:39:58.710Z,7.87
2018-11-06T05:40:58.675Z,7.95
2018-11-06T05:41:58.677Z,7.86
2018-11-06T05:42:58.651Z,7.77
2018-11-06T05:43:58.721Z,7.84
2018-11-06T05:44:58.629Z,7.78
2018-11-06T05:45:58.921Z,7.84
2018-11-06T05:46:58.599Z,7.76
2018-11-06T05:47:58.605Z,7.80
2018-11-06T05:48:58.589Z,7.86
2018-11-06T05:49:58.615Z,7.86
2018-11-06T05:50:58.561Z,7.77
2018-11-06T05:51:58.604Z,7.76
2018-11-06T05:52:58.599Z,7.74
2018-11-06T05:53:58.528Z,7.77
2018-11-06T05:54:58.517Z,7.74
2018-11-06T05:55:58.510Z,7.76
2018-11-06T05:56:58.570Z,7.77
2018-11-06T05:57:58.553Z,7.77
2018-11-06T05:58:58.478Z,7.76
2018-11-06T05:59:58.460Z,7.76
2018-11-06T06:00:58.458Z,7.73
2018-11-06T06:01:58.437Z,7.77
2018-11-06T06:02:58.449Z,7.91
2018-11-06T06:03:58.472Z,7.73
2018-11-06T06:05:00.949Z,7.77
2018-11-06T06:05:58.392Z,7.74
2018-11-06T06:06:58.388Z,7.78
2018-11-06T06:07:58.398Z,7.76
2018-11-06T06:08:58.381Z,7.80
2018-11-06T06:09:58.419Z,7.91
2018-11-06T06:10:58.366Z,7.77
2018-11-06T06:11:58.355Z,7.87
2018-11-06T06:12:58.323Z,7.74
2018-11-06T06:13:58.314Z,7.74
2018-11-06T06:14:58.301Z,7.83
2018-11-06T06:15:58.331Z,7.76
2018-11-06T06:16:58.330Z,7.84
2018-11-06T06:17:58.265Z,7.74
2018-11-06T06:18:58.256Z,7.71
2018-11-06T06:19:58.246Z,7.86
2018-11-06T06:20:58.246Z,7.83
2018-11-06T06:21:58.285Z,7.88
2018-11-06T06:22:58.213Z,7.84
2018-11-06T06:23:58.223Z,7.84
2018-11-06T06:24:58.196Z,7.92
2018-11-06T06:25:58.202Z,7.94
2018-11-06T06:26:58.174Z,7.87
2018-11-06T06:27:58.209Z,7.92
2018-11-06T06:28:58.150Z,7.84
2018-11-06T06:29:58.137Z,7.84
2018-11-06T06:30:58.129Z,7.91
2018-11-06T06:31:58.128Z,7.81
2018-11-06T06:32:58.104Z,7.92
2018-11-06T06:33:58.139Z,7.78
2018-11-06T06:34:58.124Z,7.77
2018-11-06T06:35:58.069Z,7.77
2018-11-06T06:36:58.068Z,7.78
2018-11-06T06:37:58.067Z,7.77
2018-11-06T06:38:58.037Z,7.81
2018-11-06T06:39:58.106Z,7.64
2018-11-06T06:40:58.052Z,7.80
2018-11-06T06:41:58.002Z,7.78
2018-11-06T06:42:58.000Z,7.80
2018-11-06T06:43:57.980Z,7.74
2018-11-06T06:44:57.989Z,7.74
2018-11-06T06:45:57.997Z,7.77
2018-11-06T06:46:57.954Z,7.76
2018-11-06T06:47:57.949Z,7.81
2018-11-06T06:48:57.939Z,7.86
2018-11-06T06:49:57.920Z,7.74
2018-11-06T06:50:57.907Z,7.77
2018-11-06T06:51:57.941Z,7.73
2018-11-06T06:52:57.897Z,7.73
2018-11-06T06:53:57.955Z,7.73
2018-11-06T06:54:57.873Z,7.78
2018-11-06T06:55:57.857Z,7.87
2018-11-06T06:56:57.844Z,7.80
2018-11-06T06:57:57.870Z,7.86
2018-11-06T06:58:57.819Z,7.84
2018-11-06T06:59:57.820Z,7.88
2018-11-06T07:00:57.805Z,7.87
2018-11-06T07:01:57.785Z,7.95
2018-11-06T07:02:57.782Z,7.87
2018-11-06T07:03:57.823Z,7.92
2018-11-06T07:04:57.757Z,7.88
2018-11-06T07:05:57.745Z,8.04
2018-11-06T07:06:57.754Z,7.86
2018-11-06T07:07:57.726Z,7.98
2018-11-06T07:08:57.708Z,7.88
2018-11-06T07:09:57.742Z,7.95
2018-11-06T07:10:57.706Z,7.99
2018-11-06T07:11:57.675Z,7.96
2018-11-06T07:12:57.768Z,7.98
2018-11-06T07:13:57.674Z,8.04
2018-11-06T07:14:57.644Z,8.01
2018-11-06T07:15:57.687Z,8.01
2018-11-06T07:16:57.625Z,8.13
2018-11-06T07:17:57.613Z,8.14
2018-11-06T07:18:57.600Z,8.09
2018-11-06T07:19:57.642Z,8.19
2018-11-06T07:20:57.581Z,8.26
2018-11-06T07:21:57.613Z,8.20
2018-11-06T07:22:57.565Z,8.29
2018-11-06T07:23:57.544Z,8.31
2018-11-06T07:24:57.549Z,8.34
2018-11-06T07:25:57.523Z,8.28
2018-11-06T07:26:57.517Z,8.29
2018-11-06T07:27:57.562Z,8.50
2018-11-06T07:28:57.541Z,8.46
2018-11-06T07:29:57.486Z,8.55
2018-11-06T07:30:57.471Z,8.53
2018-11-06T07:31:57.456Z,8.56
2018-11-06T07:32:57.464Z,8.55
2018-11-06T07:33:57.469Z,8.59
2018-11-06T07:34:57.648Z,8.70
2018-11-06T07:35:57.533Z,8.72
2018-11-06T07:36:57.409Z,8.78
2018-11-06T07:37:57.460Z,8.83
2018-11-06T07:38:57.448Z,8.80
2018-11-06T07:39:57.436Z,8.89
2018-11-06T07:40:57.457Z,8.90
2018-11-06T07:41:57.346Z,8.93
2018-11-06T07:42:57.355Z,8.90
2018-11-06T07:43:57.327Z,8.92
2018-11-06T07:44:57.313Z,8.96
2018-11-06T07:45:57.378Z,8.98
2018-11-06T07:46:57.300Z,8.99
2018-11-06T07:47:57.287Z,9.11
2018-11-06T07:48:57.283Z,9.04
2018-11-06T07:49:57.323Z,9.15
2018-11-06T07:50:57.252Z,9.06
2018-11-06T07:51:57.270Z,9.14
2018-11-06T07:52:57.231Z,9.08
2018-11-06T07:53:57.245Z,9.12
2018-11-06T07:54:57.208Z,9.22
2018-11-06T07:55:57.200Z,9.23
2018-11-06T07:56:57.188Z,9.24
2018-11-06T07:57:57.218Z,9.33
2018-11-06T07:58:57.164Z,9.30
2018-11-06T07:59:57.174Z,9.36
2018-11-06T08:00:57.146Z,9.41
2018-11-06T08:01:57.133Z,9.37
2018-11-06T08:02:57.117Z,9.40
2018-11-06T08:03:57.203Z,9.45
2018-11-06T08:04:57.093Z,9.40
2018-11-06T08:05:57.082Z,9.37
2018-11-06T08:06:57.085Z,9.41
2018-11-06T08:07:57.067Z,9.47
2018-11-06T08:08:57.054Z,9.52
2018-11-06T08:09:57.110Z,9.54
2018-11-06T08:10:57.029Z,9.55
2018-11-06T08:11:57.017Z,9.51
2018-11-06T08:12:57.005Z,9.60
2018-11-06T08:13:56.994Z,9.62
2018-11-06T08:14:57.025Z,9.55
2018-11-06T08:15:57.004Z,9.60
2018-11-06T08:16:56.961Z,9.65
2018-11-06T08:17:56.982Z,9.66
2018-11-06T08:18:56.944Z,9.67
2018-11-06T08:19:56.935Z,9.75
2018-11-06T08:20:56.921Z,9.80
2018-11-06T08:21:56.971Z,9.65
2018-11-06T08:22:56.916Z,9.78
2018-11-06T08:23:56.946Z,9.77
2018-11-06T08:24:56.893Z,9.83
2018-11-06T08:25:56.868Z,9.87
2018-11-06T08:26:56.856Z,9.84
2018-11-06T08:27:57.071Z,9.88
2018-11-06T08:28:56.836Z,9.93
2018-11-06T08:29:56.824Z,9.84
2018-11-06T08:30:56.933Z,9.91
2018-11-06T08:31:57.048Z,9.90
2018-11-06T08:32:56.816Z,9.98
2018-11-06T08:33:56.835Z,9.81
2018-11-06T08:34:56.773Z,9.99
2018-11-06T08:35:56.755Z,9.94
2018-11-06T08:36:56.777Z,9.91
2018-11-06T08:37:56.740Z,9.93
2018-11-06T08:38:56.725Z,10.02
2018-11-06T08:39:56.774Z,9.96
2018-11-06T08:40:56.713Z,9.93
2018-11-06T08:41:56.698Z,9.98
2018-11-06T08:42:56.694Z,9.98
2018-11-06T08:43:56.677Z,9.96
2018-11-06T08:44:56.663Z,9.99
2018-11-06T08:45:56.696Z,10.02
2018-11-06T08:46:56.654Z,10.06
2018-11-06T08:47:56.643Z,10.08
2018-11-06T08:48:56.618Z,10.14
2018-11-06T08:49:56.606Z,10.08
2018-11-06T08:50:56.594Z,10.23
2018-11-06T08:51:56.631Z,10.23
2018-11-06T08:52:56.588Z,10.27
2018-11-06T08:53:56.571Z,10.23
2018-11-06T08:54:56.555Z,10.34
2018-11-06T08:55:56.541Z,10.23
2018-11-06T08:56:56.546Z,10.30
2018-11-06T08:57:56.557Z,10.30
2018-11-06T08:58:56.533Z,10.31
2018-11-06T08:59:56.501Z,10.26
2018-11-06T09:00:56.499Z,10.30
2018-11-06T09:01:56.477Z,10.38
2018-11-06T09:02:56.473Z,10.43
2018-11-06T09:03:56.504Z,10.34
2018-11-06T09:04:56.449Z,10.39
2018-11-06T09:05:56.437Z,10.39
2018-11-06T09:06:56.429Z,10.36
2018-11-06T09:07:56.416Z,10.52
2018-11-06T09:08:56.488Z,10.52
2018-11-06T09:09:56.443Z,10.57
2018-11-06T09:10:56.398Z,10.65
2018-11-06T09:11:56.374Z,10.62
2018-11-06T09:12:56.383Z,10.64
2018-11-06T09:13:56.348Z,10.70
2018-11-06T09:14:56.338Z,10.64
2018-11-06T09:15:56.364Z,10.80
2018-11-06T09:16:56.414Z,10.79
2018-11-06T09:17:56.309Z,10.90
2018-11-06T09:18:56.292Z,10.85
2018-11-06T09:19:56.280Z,10.93
2018-11-06T09:20:56.272Z,10.93
2018-11-06T09:21:56.303Z,11.01
2018-11-06T09:22:56.272Z,11.12
2018-11-06T09:23:56.243Z,11.09
2018-11-06T09:24:56.226Z,11.23
2018-11-06T09:25:56.219Z,11.09
2018-11-06T09:26:56.216Z,11.20
2018-11-06T09:27:56.238Z,11.22
2018-11-06T09:28:56.245Z,11.19
2018-11-06T09:29:56.182Z,11.23
2018-11-06T09:30:56.240Z,11.25
2018-11-06T09:31:56.154Z,11.27
2018-11-06T09:32:56.142Z,11.25
2018-11-06T09:33:56.172Z,11.22
2018-11-06T09:34:56.128Z,11.19
2018-11-06T09:35:56.124Z,11.25
2018-11-06T09:36:56.102Z,11.33
2018-11-06T09:37:56.089Z,11.34
2018-11-06T09:38:56.076Z,11.34
2018-11-06T09:39:56.109Z,11.40
2018-11-06T09:40:56.056Z,11.46
2018-11-06T09:41:56.065Z,11.46
2018-11-06T09:42:56.032Z,11.46
2018-11-06T09:43:56.018Z,11.51
2018-11-06T09:44:56.041Z,11.51
2018-11-06T09:45:56.057Z,11.51
2018-11-06T09:46:55.997Z,11.54
2018-11-06T09:47:55.981Z,11.55
2018-11-06T09:48:55.965Z,11.52
2018-11-06T09:49:55.962Z,11.56
2018-11-06T09:50:55.943Z,11.52
2018-11-06T09:51:56.038Z,11.56
2018-11-06T09:52:55.922Z,11.62
2018-11-06T09:53:55.915Z,11.69
2018-11-06T09:54:55.903Z,11.69
2018-11-06T09:55:55.890Z,11.80
2018-11-06T09:56:55.895Z,11.67
2018-11-06T09:57:55.908Z,11.88
2018-11-06T09:58:55.859Z,11.91
2018-11-06T09:59:55.846Z,11.97
2018-11-06T10:00:55.840Z,11.91
2018-11-06T10:01:55.829Z,11.93
2018-11-06T10:02:55.832Z,11.93
2018-11-06T10:03:55.851Z,11.99
2018-11-06T10:04:55.791Z,12.04
2018-11-06T10:05:55.784Z,12.08
2018-11-06T10:06:56.101Z,12.04
2018-11-06T10:07:55.832Z,12.18
2018-11-06T10:08:55.774Z,12.13
2018-11-06T10:09:55.778Z,12.21
2018-11-06T10:10:55.731Z,12.28
2018-11-06T10:11:55.717Z,12.11
2018-11-06T10:12:55.705Z,12.13
2018-11-06T10:13:55.698Z,12.10
2018-11-06T10:14:55.699Z,12.15
2018-11-06T10:15:55.723Z,12.14
2018-11-06T10:16:55.659Z,12.14
2018-11-06T10:17:55.649Z,12.21
2018-11-06T10:18:55.637Z,12.23
2018-11-06T10:19:55.638Z,12.26
2018-11-06T10:20:55.632Z,12.32
2018-11-06T10:21:55.654Z,12.33
2018-11-06T10:22:55.595Z,12.38
2018-11-06T10:23:55.588Z,12.28
2018-11-06T10:24:55.572Z,12.48
2018-11-06T10:25:55.563Z,12.46
2018-11-06T10:26:55.575Z,12.41
2018-11-06T10:27:55.586Z,12.47
2018-11-06T10:28:55.540Z,12.47
2018-11-06T10:29:55.521Z,12.47
2018-11-06T10:30:55.554Z,12.53
2018-11-06T10:31:55.497Z,12.47
2018-11-06T10:32:55.507Z,12.46
2018-11-06T10:33:55.526Z,12.58
2018-11-06T10:34:55.469Z,12.63
2018-11-06T10:35:55.455Z,12.71
2018-11-06T10:36:55.443Z,12.73
2018-11-06T10:37:55.454Z,12.83
2018-11-06T10:38:55.445Z,12.87
2018-11-06T10:39:55.469Z,12.86
2018-11-06T10:40:55.404Z,12.91
2018-11-06T10:41:55.389Z,12.90
2018-11-06T10:42:55.377Z,12.96
2018-11-06T10:43:55.366Z,12.91
2018-11-06T10:44:55.377Z,12.98
2018-11-06T10:45:55.386Z,12.95
2018-11-06T10:46:55.336Z,12.96
2018-11-06T10:47:55.323Z,12.95
2018-11-06T10:48:55.314Z,12.99
2018-11-06T10:49:55.308Z,12.96
2018-11-06T10:50:55.314Z,13.04
2018-11-06T10:51:55.398Z,13.06
2018-11-06T10:52:55.266Z,13.06
2018-11-06T10:53:55.254Z,13.17
2018-11-06T10:54:55.243Z,13.17
2018-11-06T10:55:55.232Z,13.19
2018-11-06T10:56:55.236Z,13.16
2018-11-06T10:57:55.324Z,13.24
2018-11-06T10:58:55.200Z,13.17
2018-11-06T10:59:55.188Z,13.32
2018-11-06T11:00:55.175Z,13.32
2018-11-06T11:01:55.165Z,13.35
2018-11-06T11:02:55.172Z,13.43
2018-11-06T11:03:55.205Z,13.46
2018-11-06T11:04:55.139Z,13.53
2018-11-06T11:05:55.122Z,13.54
2018-11-06T11:06:55.108Z,13.57
2018-11-06T11:07:55.099Z,13.49
2018-11-06T11:08:55.096Z,13.51
2018-11-06T11:09:55.128Z,13.64
2018-11-06T11:10:55.064Z,13.76
2018-11-06T11:11:55.087Z,13.78
2018-11-06T11:12:55.046Z,13.79
2018-11-06T11:13:55.037Z,13.82
2018-11-06T11:14:55.026Z,13.83
2018-11-06T11:15:55.054Z,13.90
2018-11-06T11:16:55.001Z,13.98
2018-11-06T11:17:54.991Z,13.96
2018-11-06T11:18:54.979Z,14.11
2018-11-06T11:19:54.970Z,14.11
2018-11-06T11:20:54.970Z,14.08
2018-11-06T11:21:55.000Z,14.05
2018-11-06T11:22:54.932Z,14.16
2018-11-06T11:23:54.924Z,14.23
2018-11-06T11:24:54.911Z,14.19
2018-11-06T11:25:54.955Z,14.26
2018-11-06T11:26:54.918Z,14.21
2018-11-06T11:27:54.939Z,14.23
2018-11-06T11:28:54.872Z,14.19
2018-11-06T11:29:54.860Z,14.21
2018-11-06T11:30:54.847Z,14.26
2018-11-06T11:31:54.839Z,14.22
2018-11-06T11:32:54.836Z,14.30
2018-11-06T11:33:54.914Z,14.34
2018-11-06T11:34:54.807Z,14.41
2018-11-06T11:35:54.796Z,14.56
2018-11-06T11:36:54.780Z,14.53
2018-11-06T11:37:54.858Z,14.56
2018-11-06T11:38:54.758Z,14.61
2018-11-06T11:39:54.811Z,14.59
2018-11-06T11:40:54.737Z,14.64
2018-11-06T11:41:54.726Z,14.70
2018-11-06T11:42:54.715Z,14.67
2018-11-06T11:43:54.707Z,14.69
2018-11-06T11:44:54.752Z,14.90
2018-11-06T11:45:54.817Z,14.97
2018-11-06T11:46:54.671Z,15.05
2018-11-06T11:47:54.662Z,15.14
2018-11-06T11:48:54.655Z,15.11
2018-11-06T11:49:54.637Z,15.25
2018-11-06T11:50:54.629Z,15.23
2018-11-06T11:51:54.681Z,15.27
2018-11-06T11:52:54.606Z,15.26
2018-11-06T11:53:54.598Z,15.25
2018-11-06T11:54:54.591Z,15.27
2018-11-06T11:55:54.572Z,15.29
2018-11-06T11:56:54.566Z,15.32
2018-11-06T11:57:54.608Z,15.25
2018-11-06T11:58:54.540Z,15.23
2018-11-06T11:59:54.572Z,15.27
2018-11-06T12:00:54.519Z,15.25
2018-11-06T12:01:54.513Z,15.23
2018-11-06T12:02:54.498Z,15.43
2018-11-06T12:03:54.552Z,15.32
2018-11-06T12:04:54.480Z,15.33
2018-11-06T12:05:54.470Z,15.33
2018-11-06T12:06:54.452Z,15.40
2018-11-06T12:07:54.443Z,15.43
2018-11-06T12:08:54.432Z,15.40
2018-11-06T12:09:54.481Z,15.41
2018-11-06T12:10:54.414Z,15.51
2018-11-06T12:11:54.406Z,15.36
2018-11-06T12:12:54.389Z,15.36
2018-11-06T12:13:54.378Z,15.51
2018-11-06T12:14:54.365Z,15.45
2018-11-06T12:15:54.575Z,15.48
2018-11-06T12:16:54.343Z,15.44
2018-11-06T12:17:54.334Z,15.51
2018-11-06T12:18:54.326Z,15.44
2018-11-06T12:19:54.312Z,15.40
2018-11-06T12:20:54.300Z,15.45
2018-11-06T12:21:54.379Z,15.63
2018-11-06T12:22:54.281Z,15.65
2018-11-06T12:23:54.298Z,15.62
2018-11-06T12:24:54.355Z,15.68
2018-11-06T12:25:54.250Z,15.72
2018-11-06T12:26:54.233Z,15.76
2018-11-06T12:27:54.267Z,15.66
2018-11-06T12:28:54.215Z,15.72
2018-11-06T12:29:54.208Z,15.70
2018-11-06T12:30:54.234Z,15.77
2018-11-06T12:31:54.181Z,15.83
2018-11-06T12:32:54.173Z,15.81
2018-11-06T12:33:54.248Z,15.90
2018-11-06T12:34:54.148Z,15.98
2018-11-06T12:35:54.145Z,15.93
2018-11-06T12:36:54.249Z,15.83
2018-11-06T12:37:54.114Z,15.84
2018-11-06T12:38:54.105Z,15.83
2018-11-06T12:39:54.162Z,15.80
2018-11-06T12:40:54.111Z,15.77
2018-11-06T12:41:54.069Z,15.76
2018-11-06T12:42:54.073Z,15.69
2018-11-06T12:43:54.048Z,15.70
2018-11-06T12:44:54.034Z,15.72
2018-11-06T12:45:54.071Z,15.91
2018-11-06T12:46:54.035Z,15.91
2018-11-06T12:47:54.006Z,16.06
2018-11-06T12:48:53.994Z,16.21
2018-11-06T12:49:53.978Z,16.26
2018-11-06T12:50:53.974Z,16.37
2018-11-06T12:51:54.009Z,16.47
2018-11-06T12:52:53.949Z,16.57
2018-11-06T12:53:53.947Z,16.59
2018-11-06T12:54:53.932Z,16.62
2018-11-06T12:55:53.922Z,16.69
2018-11-06T12:56:53.903Z,16.72
2018-11-06T12:57:53.939Z,16.69
2018-11-06T12:58:53.900Z,16.76
2018-11-06T12:59:53.877Z,16.62
2018-11-06T13:00:53.881Z,16.47
2018-11-06T13:01:53.851Z,16.49
2018-11-06T13:02:53.850Z,16.40
2018-11-06T13:03:53.889Z,16.40
2018-11-06T13:04:53.819Z,16.39
2018-11-06T13:05:53.814Z,16.49
2018-11-06T13:06:53.819Z,16.39
2018-11-06T13:07:53.794Z,16.39
2018-11-06T13:08:53.774Z,16.54